sensor_id;sensor_type;location;lat;lon;timestamp;P1;durP1;ratioP1;P2;durP2;ratioP2
25169;SDS011;13129;48.012;10.352;2023-04-07T03:32:01;17.63;;;11.38;;
25169;SDS011;13129;48.012;10.352;2023-04-07T03:34:26;9.93;;;8.40;;
25169;SDS011;13129;48.012;10.352;2023-04-07T03:36:52;9.15;;;7.45;;
25169;SDS011;13129;48.012;10.352;2023-04-07T03:39:17;10.90;;;8.60;;
25169;SDS011;13129;48.012;10.352;2023-04-07T03:41:43;9.77;;;8.13;;
25169;SDS011;13129;48.012;10.352;2023-04-07T03:44:09;9.75;;;7.68;;
25169;SDS011;13129;48.012;10.352;2023-04-07T03:46:35;9.20;;;7.45;;
25169;SDS011;13129;48.012;10.352;2023-04-07T03:49:01;8.90;;;7.90;;
25169;SDS011;13129;48.012;10.352;2023-04-07T03:51:26;8.43;;;7.40;;
25169;SDS011;13129;48.012;10.352;2023-04-07T03:53:52;9.23;;;7.78;;
25169;SDS011;13129;48.012;10.352;2023-04-07T03:56:18;9.07;;;7.45;;
25169;SDS011;13129;48.012;10.352;2023-04-07T03:58:44;9.77;;;7.28;;
25169;SDS011;13129;48.012;10.352;2023-04-07T04:01:10;8.95;;;7.50;;
25169;SDS011;13129;48.012;10.352;2023-04-07T04:03:36;9.95;;;7.30;;
25169;SDS011;13129;48.012;10.352;2023-04-07T04:06:02;8.60;;;7.20;;
25169;SDS011;13129;48.012;10.352;2023-04-07T04:08:27;8.48;;;7.30;;
25169;SDS011;13129;48.012;10.352;2023-04-07T04:10:53;9.95;;;7.60;;
25169;SDS011;13129;48.012;10.352;2023-04-07T04:13:19;11.27;;;8.48;;
25169;SDS011;13129;48.012;10.352;2023-04-07T04:15:44;12.27;;;8.85;;
25169;SDS011;13129;48.012;10.352;2023-04-07T04:18:10;10.00;;;7.72;;
25169;SDS011;13129;48.012;10.352;2023-04-07T04:20:36;10.55;;;7.63;;
25169;SDS011;13129;48.012;10.352;2023-04-07T04:23:01;9.02;;;7.13;;
25169;SDS011;13129;48.012;10.352;2023-04-07T04:25:27;9.45;;;7.15;;
25169;SDS011;13129;48.012;10.352;2023-04-07T04:27:53;8.07;;;7.20;;
25169;SDS011;13129;48.012;10.352;2023-04-07T04:30:18;9.40;;;7.15;;
25169;SDS011;13129;48.012;10.352;2023-04-07T04:32:44;9.60;;;7.40;;
25169;SDS011;13129;48.012;10.352;2023-04-07T04:35:10;8.52;;;7.47;;
25169;SDS011;13129;48.012;10.352;2023-04-07T04:37:35;9.15;;;7.07;;
25169;SDS011;13129;48.012;10.352;2023-04-07T04:40:01;9.15;;;7.75;;
25169;SDS011;13129;48.012;10.352;2023-04-07T04:42:28;8.93;;;7.30;;
25169;SDS011;13129;48.012;10.352;2023-04-07T04:44:55;7.32;;;6.57;;
25169;SDS011;13129;48.012;10.352;2023-04-07T04:47:21;12.05;;;7.97;;
25169;SDS011;13129;48.012;10.352;2023-04-07T04:49:46;9.10;;;7.25;;
25169;SDS011;13129;48.012;10.352;2023-04-07T04:52:12;9.82;;;7.45;;
25169;SDS011;13129;48.012;10.352;2023-04-07T04:54:37;7.82;;;6.82;;
25169;SDS011;13129;48.012;10.352;2023-04-07T04:57:03;9.57;;;8.18;;
25169;SDS011;13129;48.012;10.352;2023-04-07T04:59:29;8.98;;;7.30;;
25169;SDS011;13129;48.012;10.352;2023-04-07T05:01:55;10.43;;;8.00;;
25169;SDS011;13129;48.012;10.352;2023-04-07T05:04:20;8.82;;;7.63;;
25169;SDS011;13129;48.012;10.352;2023-04-07T05:06:46;9.98;;;7.40;;
25169;SDS011;13129;48.012;10.352;2023-04-07T05:09:11;10.15;;;7.68;;
25169;SDS011;13129;48.012;10.352;2023-04-07T05:11:37;8.15;;;6.85;;
25169;SDS011;13129;48.012;10.352;2023-04-07T05:14:08;12.70;;;7.57;;
25169;SDS011;13129;48.012;10.352;2023-04-07T05:16:34;8.82;;;7.28;;
25169;SDS011;13129;48.012;10.352;2023-04-07T05:19:00;10.32;;;7.28;;
25169;SDS011;13129;48.012;10.352;2023-04-07T05:21:26;10.55;;;8.25;;
25169;SDS011;13129;48.012;10.352;2023-04-07T05:23:52;9.77;;;8.05;;
25169;SDS011;13129;48.012;10.352;2023-04-07T05:26:18;10.45;;;7.90;;
25169;SDS011;13129;48.012;10.352;2023-04-07T05:28:43;10.05;;;8.98;;
25169;SDS011;13129;48.012;10.352;2023-04-07T05:31:09;11.98;;;9.18;;
25169;SDS011;13129;48.012;10.352;2023-04-07T05:33:35;10.55;;;8.70;;
25169;SDS011;13129;48.012;10.352;2023-04-07T05:36:00;11.73;;;8.45;;
25169;SDS011;13129;48.012;10.352;2023-04-07T05:38:26;9.52;;;7.38;;
25169;SDS011;13129;48.012;10.352;2023-04-07T05:40:51;9.90;;;7.55;;
25169;SDS011;13129;48.012;10.352;2023-04-07T05:43:17;10.18;;;7.43;;
25169;SDS011;13129;48.012;10.352;2023-04-07T05:45:43;8.32;;;7.35;;
25169;SDS011;13129;48.012;10.352;2023-04-07T05:48:09;8.60;;;7.70;;
25169;SDS011;13129;48.012;10.352;2023-04-07T05:50:34;8.93;;;7.72;;
25169;SDS011;13129;48.012;10.352;2023-04-07T05:53:00;9.77;;;7.70;;
25169;SDS011;13129;48.012;10.352;2023-04-07T05:55:26;10.35;;;8.43;;
25169;SDS011;13129;48.012;10.352;2023-04-07T05:57:52;9.45;;;8.32;;
25169;SDS011;13129;48.012;10.352;2023-04-07T06:00:17;11.27;;;10.05;;
25169;SDS011;13129;48.012;10.352;2023-04-07T06:02:43;11.05;;;9.95;;
25169;SDS011;13129;48.012;10.352;2023-04-07T06:05:10;13.05;;;10.52;;
25169;SDS011;13129;48.012;10.352;2023-04-07T06:07:35;19.52;;;14.57;;
25169;SDS011;13129;48.012;10.352;2023-04-07T06:10:01;23.08;;;16.92;;
25169;SDS011;13129;48.012;10.352;2023-04-07T06:12:26;18.17;;;12.27;;
25169;SDS011;13129;48.012;10.352;2023-04-07T06:14:52;13.60;;;10.27;;
25169;SDS011;13129;48.012;10.352;2023-04-07T06:17:19;10.52;;;8.80;;
25169;SDS011;13129;48.012;10.352;2023-04-07T06:19:45;10.55;;;9.25;;
25169;SDS011;13129;48.012;10.352;2023-04-07T06:22:11;10.27;;;8.27;;
25169;SDS011;13129;48.012;10.352;2023-04-07T06:24:37;9.45;;;7.85;;
25169;SDS011;13129;48.012;10.352;2023-04-07T06:27:02;10.00;;;8.15;;
25169;SDS011;13129;48.012;10.352;2023-04-07T06:29:28;10.20;;;7.75;;
25169;SDS011;13129;48.012;10.352;2023-04-07T06:31:55;10.25;;;7.72;;
25169;SDS011;13129;48.012;10.352;2023-04-07T06:34:21;10.02;;;7.50;;
25169;SDS011;13129;48.012;10.352;2023-04-07T06:36:46;9.30;;;7.70;;
25169;SDS011;13129;48.012;10.352;2023-04-07T06:39:12;7.75;;;6.95;;
25169;SDS011;13129;48.012;10.352;2023-04-07T06:41:38;7.80;;;6.78;;
25169;SDS011;13129;48.012;10.352;2023-04-07T06:44:07;8.93;;;6.75;;
25169;SDS011;13129;48.012;10.352;2023-04-07T06:46:33;10.05;;;8.45;;
25169;SDS011;13129;48.012;10.352;2023-04-07T06:48:59;8.73;;;7.28;;
25169;SDS011;13129;48.012;10.352;2023-04-07T06:51:25;8.05;;;7.25;;
25169;SDS011;13129;48.012;10.352;2023-04-07T06:53:51;8.15;;;6.90;;
25169;SDS011;13129;48.012;10.352;2023-04-07T06:56:21;11.68;;;8.23;;
25169;SDS011;13129;48.012;10.352;2023-04-07T06:58:47;7.63;;;6.55;;
25169;SDS011;13129;48.012;10.352;2023-04-07T07:01:12;7.78;;;7.03;;
25169;SDS011;13129;48.012;10.352;2023-04-07T07:03:38;7.25;;;6.47;;
25169;SDS011;13129;48.012;10.352;2023-04-07T07:06:04;7.82;;;7.00;;
25169;SDS011;13129;48.012;10.352;2023-04-07T07:08:30;9.32;;;6.90;;
25169;SDS011;13129;48.012;10.352;2023-04-07T07:10:59;8.02;;;6.82;;
25169;SDS011;13129;48.012;10.352;2023-04-07T07:13:25;7.93;;;6.88;;
25169;SDS011;13129;48.012;10.352;2023-04-07T07:15:52;8.73;;;7.38;;
25169;SDS011;13129;48.012;10.352;2023-04-07T07:18:18;9.23;;;8.38;;
25169;SDS011;13129;48.012;10.352;2023-04-07T07:20:44;8.10;;;7.25;;
25169;SDS011;13129;48.012;10.352;2023-04-07T07:23:11;11.18;;;8.82;;
25169;SDS011;13129;48.012;10.352;2023-04-07T07:25:37;11.13;;;8.90;;
25169;SDS011;13129;48.012;10.352;2023-04-07T07:28:04;9.57;;;8.57;;
25169;SDS011;13129;48.012;10.352;2023-04-07T07:30:33;10.15;;;7.72;;
25169;SDS011;13129;48.012;10.352;2023-04-07T07:32:59;9.68;;;8.18;;
25169;SDS011;13129;48.012;10.352;2023-04-07T07:35:25;12.18;;;9.15;;
25169;SDS011;13129;48.012;10.352;2023-04-07T07:37:51;7.80;;;7.00;;
25169;SDS011;13129;48.012;10.352;2023-04-07T07:40:17;9.48;;;8.05;;
25169;SDS011;13129;48.012;10.352;2023-04-07T07:42:44;10.15;;;7.90;;
25169;SDS011;13129;48.012;10.352;2023-04-07T07:45:10;8.23;;;7.35;;
25169;SDS011;13129;48.012;10.352;2023-04-07T07:47:38;9.23;;;8.18;;
25169;SDS011;13129;48.012;10.352;2023-04-07T07:50:04;10.77;;;9.68;;
25169;SDS011;13129;48.012;10.352;2023-04-07T07:52:32;10.05;;;8.82;;
25169;SDS011;13129;48.012;10.352;2023-04-07T07:54:58;8.30;;;7.50;;
25169;SDS011;13129;48.012;10.352;2023-04-07T07:57:24;8.15;;;7.40;;
25169;SDS011;13129;48.012;10.352;2023-04-07T07:59:53;8.88;;;7.80;;
25169;SDS011;13129;48.012;10.352;2023-04-07T08:02:20;8.38;;;7.30;;
25169;SDS011;13129;48.012;10.352;2023-04-07T08:04:55;8.00;;;7.10;;
25169;SDS011;13129;48.012;10.352;2023-04-07T08:07:22;6.97;;;6.32;;
25169;SDS011;13129;48.012;10.352;2023-04-07T08:09:49;7.05;;;6.45;;
25169;SDS011;13129;48.012;10.352;2023-04-07T08:12:36;5.97;;;5.47;;
25169;SDS011;13129;48.012;10.352;2023-04-07T08:15:03;7.82;;;6.60;;
25169;SDS011;13129;48.012;10.352;2023-04-07T08:17:33;7.68;;;6.20;;
25169;SDS011;13129;48.012;10.352;2023-04-07T08:20:04;7.60;;;6.90;;
25169;SDS011;13129;48.012;10.352;2023-04-07T08:22:31;6.90;;;6.28;;
25169;SDS011;13129;48.012;10.352;2023-04-07T08:24:57;7.15;;;6.53;;
25169;SDS011;13129;48.012;10.352;2023-04-07T08:27:24;7.60;;;6.90;;
25169;SDS011;13129;48.012;10.352;2023-04-07T08:29:58;8.40;;;6.97;;
25169;SDS011;13129;48.012;10.352;2023-04-07T08:35:07;8.35;;;6.82;;
25169;SDS011;13129;48.012;10.352;2023-04-07T08:37:33;8.38;;;7.35;;
25169;SDS011;13129;48.012;10.352;2023-04-07T08:40:00;7.10;;;6.40;;
25169;SDS011;13129;48.012;10.352;2023-04-07T08:42:27;8.30;;;7.50;;
25169;SDS011;13129;48.012;10.352;2023-04-07T08:44:55;16.15;;;14.57;;
25169;SDS011;13129;48.012;10.352;2023-04-07T08:47:25;8.70;;;7.82;;
25169;SDS011;13129;48.012;10.352;2023-04-07T08:49:53;8.77;;;8.00;;
25169;SDS011;13129;48.012;10.352;2023-04-07T08:52:25;11.23;;;10.13;;
25169;SDS011;13129;48.012;10.352;2023-04-07T08:54:59;10.73;;;9.73;;
25169;SDS011;13129;48.012;10.352;2023-04-07T08:57:30;9.30;;;8.40;;
25169;SDS011;13129;48.012;10.352;2023-04-07T08:59:57;10.00;;;8.95;;
25169;SDS011;13129;48.012;10.352;2023-04-07T09:02:28;8.90;;;8.10;;
25169;SDS011;13129;48.012;10.352;2023-04-07T09:04:55;7.63;;;6.93;;
25169;SDS011;13129;48.012;10.352;2023-04-07T09:07:21;8.02;;;7.32;;
25169;SDS011;13129;48.012;10.352;2023-04-07T09:09:46;7.72;;;7.00;;
25169;SDS011;13129;48.012;10.352;2023-04-07T09:12:12;7.72;;;6.90;;
25169;SDS011;13129;48.012;10.352;2023-04-07T09:14:37;7.13;;;6.35;;
25169;SDS011;13129;48.012;10.352;2023-04-07T09:17:03;8.98;;;8.18;;
25169;SDS011;13129;48.012;10.352;2023-04-07T09:19:29;8.45;;;6.53;;
25169;SDS011;13129;48.012;10.352;2023-04-07T09:21:55;7.28;;;6.55;;
25169;SDS011;13129;48.012;10.352;2023-04-07T09:24:24;7.65;;;6.75;;
25169;SDS011;13129;48.012;10.352;2023-04-07T09:26:50;6.70;;;6.10;;
25169;SDS011;13129;48.012;10.352;2023-04-07T09:29:32;6.97;;;5.85;;
25169;SDS011;13129;48.012;10.352;2023-04-07T09:31:58;6.32;;;5.82;;
25169;SDS011;13129;48.012;10.352;2023-04-07T09:34:27;6.57;;;5.90;;
25169;SDS011;13129;48.012;10.352;2023-04-07T09:36:57;5.82;;;5.30;;
25169;SDS011;13129;48.012;10.352;2023-04-07T09:39:23;7.00;;;6.40;;
25169;SDS011;13129;48.012;10.352;2023-04-07T09:41:49;5.55;;;4.93;;
25169;SDS011;13129;48.012;10.352;2023-04-07T09:44:16;5.72;;;5.15;;
25169;SDS011;13129;48.012;10.352;2023-04-07T09:46:55;6.70;;;6.00;;
25169;SDS011;13129;48.012;10.352;2023-04-07T09:49:23;6.60;;;5.90;;
25169;SDS011;13129;48.012;10.352;2023-04-07T09:54:32;6.07;;;5.47;;
25169;SDS011;13129;48.012;10.352;2023-04-07T09:56:59;7.13;;;6.47;;
25169;SDS011;13129;48.012;10.352;2023-04-07T09:59:29;7.00;;;5.88;;
25169;SDS011;13129;48.012;10.352;2023-04-07T10:01:57;5.75;;;5.15;;
25169;SDS011;13129;48.012;10.352;2023-04-07T10:04:23;5.97;;;5.43;;
25169;SDS011;13129;48.012;10.352;2023-04-07T10:06:50;6.75;;;5.72;;
25169;SDS011;13129;48.012;10.352;2023-04-07T10:09:17;23.35;;;13.88;;
25169;SDS011;13129;48.012;10.352;2023-04-07T10:11:43;5.97;;;5.47;;
25169;SDS011;13129;48.012;10.352;2023-04-07T10:14:09;18.75;;;11.27;;
25169;SDS011;13129;48.012;10.352;2023-04-07T10:16:36;44.60;;;21.27;;
25169;SDS011;13129;48.012;10.352;2023-04-07T10:19:02;27.88;;;15.57;;
25169;SDS011;13129;48.012;10.352;2023-04-07T10:21:30;83.28;;;33.55;;
25169;SDS011;13129;48.012;10.352;2023-04-07T10:24:09;9.18;;;8.27;;
25169;SDS011;13129;48.012;10.352;2023-04-07T10:26:49;9.82;;;8.82;;
25169;SDS011;13129;48.012;10.352;2023-04-07T10:29:18;7.53;;;6.82;;
25169;SDS011;13129;48.012;10.352;2023-04-07T10:31:46;6.35;;;5.82;;
25169;SDS011;13129;48.012;10.352;2023-04-07T10:34:13;6.72;;;5.55;;
25169;SDS011;13129;48.012;10.352;2023-04-07T10:39:34;6.10;;;5.50;;
25169;SDS011;13129;48.012;10.352;2023-04-07T10:42:02;7.75;;;6.60;;
25169;SDS011;13129;48.012;10.352;2023-04-07T10:44:43;5.55;;;5.05;;
25169;SDS011;13129;48.012;10.352;2023-04-07T10:47:10;6.80;;;6.10;;
25169;SDS011;13129;48.012;10.352;2023-04-07T10:49:36;7.50;;;4.80;;
25169;SDS011;13129;48.012;10.352;2023-04-07T10:54:37;7.35;;;4.72;;
25169;SDS011;13129;48.012;10.352;2023-04-07T10:57:10;4.87;;;4.33;;
25169;SDS011;13129;48.012;10.352;2023-04-07T10:59:38;5.15;;;4.55;;
25169;SDS011;13129;48.012;10.352;2023-04-07T11:04:39;4.13;;;3.72;;
25169;SDS011;13129;48.012;10.352;2023-04-07T11:07:07;3.97;;;3.60;;
25169;SDS011;13129;48.012;10.352;2023-04-07T11:09:33;4.13;;;3.80;;
25169;SDS011;13129;48.012;10.352;2023-04-07T11:11:59;3.88;;;3.58;;
25169;SDS011;13129;48.012;10.352;2023-04-07T11:14:25;6.18;;;4.00;;
25169;SDS011;13129;48.012;10.352;2023-04-07T11:16:56;3.63;;;3.33;;
25169;SDS011;13129;48.012;10.352;2023-04-07T11:19:22;5.47;;;3.50;;
25169;SDS011;13129;48.012;10.352;2023-04-07T11:21:48;3.97;;;3.35;;
25169;SDS011;13129;48.012;10.352;2023-04-07T11:26:59;4.20;;;3.75;;
25169;SDS011;13129;48.012;10.352;2023-04-07T11:29:28;3.80;;;2.75;;
25169;SDS011;13129;48.012;10.352;2023-04-07T11:31:58;5.07;;;3.50;;
25169;SDS011;13129;48.012;10.352;2023-04-07T11:34:29;3.25;;;2.95;;
25169;SDS011;13129;48.012;10.352;2023-04-07T11:36:56;6.25;;;4.43;;
25169;SDS011;13129;48.012;10.352;2023-04-07T11:39:25;8.07;;;4.97;;
25169;SDS011;13129;48.012;10.352;2023-04-07T11:41:55;4.00;;;3.60;;
25169;SDS011;13129;48.012;10.352;2023-04-07T11:44:21;5.43;;;5.00;;
25169;SDS011;13129;48.012;10.352;2023-04-07T11:46:57;4.10;;;3.70;;
25169;SDS011;13129;48.012;10.352;2023-04-07T11:49:25;3.95;;;3.60;;
25169;SDS011;13129;48.012;10.352;2023-04-07T11:51:59;6.30;;;5.60;;
25169;SDS011;13129;48.012;10.352;2023-04-07T11:54:42;4.75;;;3.63;;
25169;SDS011;13129;48.012;10.352;2023-04-07T11:57:28;4.35;;;3.45;;
25169;SDS011;13129;48.012;10.352;2023-04-07T12:00:06;4.10;;;3.78;;
25169;SDS011;13129;48.012;10.352;2023-04-07T12:02:33;5.90;;;5.30;;
25169;SDS011;13129;48.012;10.352;2023-04-07T12:04:59;7.10;;;6.38;;
25169;SDS011;13129;48.012;10.352;2023-04-07T12:07:25;6.80;;;5.45;;
25169;SDS011;13129;48.012;10.352;2023-04-07T12:09:52;6.10;;;5.07;;
25169;SDS011;13129;48.012;10.352;2023-04-07T12:12:25;6.03;;;5.40;;
25169;SDS011;13129;48.012;10.352;2023-04-07T12:14:57;6.85;;;6.15;;
25169;SDS011;13129;48.012;10.352;2023-04-07T12:17:23;10.88;;;7.93;;
25169;SDS011;13129;48.012;10.352;2023-04-07T12:19:50;6.35;;;4.55;;
25169;SDS011;13129;48.012;10.352;2023-04-07T12:22:17;5.25;;;4.78;;
25169;SDS011;13129;48.012;10.352;2023-04-07T12:24:43;4.53;;;4.22;;
25169;SDS011;13129;48.012;10.352;2023-04-07T12:27:08;5.15;;;4.35;;
25169;SDS011;13129;48.012;10.352;2023-04-07T12:29:35;4.68;;;4.28;;
25169;SDS011;13129;48.012;10.352;2023-04-07T12:32:01;6.03;;;4.88;;
25169;SDS011;13129;48.012;10.352;2023-04-07T12:34:28;5.80;;;5.30;;
25169;SDS011;13129;48.012;10.352;2023-04-07T12:36:53;4.88;;;4.47;;
25169;SDS011;13129;48.012;10.352;2023-04-07T12:39:19;4.28;;;3.83;;
25169;SDS011;13129;48.012;10.352;2023-04-07T12:41:45;5.85;;;5.15;;
25169;SDS011;13129;48.012;10.352;2023-04-07T12:44:12;5.35;;;4.57;;
25169;SDS011;13129;48.012;10.352;2023-04-07T12:46:39;4.85;;;4.20;;
25169;SDS011;13129;48.012;10.352;2023-04-07T12:49:05;5.35;;;4.25;;
25169;SDS011;13129;48.012;10.352;2023-04-07T12:51:30;5.93;;;5.30;;
25169;SDS011;13129;48.012;10.352;2023-04-07T12:53:57;4.95;;;4.45;;
25169;SDS011;13129;48.012;10.352;2023-04-07T12:56:24;5.35;;;4.75;;
25169;SDS011;13129;48.012;10.352;2023-04-07T12:58:51;5.40;;;4.22;;
25169;SDS011;13129;48.012;10.352;2023-04-07T13:01:17;4.63;;;3.85;;
25169;SDS011;13129;48.012;10.352;2023-04-07T13:03:43;5.47;;;4.53;;
25169;SDS011;13129;48.012;10.352;2023-04-07T13:06:09;5.57;;;4.28;;
25169;SDS011;13129;48.012;10.352;2023-04-07T13:08:35;5.03;;;4.50;;
25169;SDS011;13129;48.012;10.352;2023-04-07T13:11:01;6.22;;;5.03;;
25169;SDS011;13129;48.012;10.352;2023-04-07T13:13:26;6.88;;;5.43;;
25169;SDS011;13129;48.012;10.352;2023-04-07T13:15:52;6.40;;;5.53;;
25169;SDS011;13129;48.012;10.352;2023-04-07T13:18:18;5.85;;;5.10;;
25169;SDS011;13129;48.012;10.352;2023-04-07T13:20:44;5.45;;;4.50;;
25169;SDS011;13129;48.012;10.352;2023-04-07T13:23:10;4.82;;;4.38;;
25169;SDS011;13129;48.012;10.352;2023-04-07T13:25:36;5.05;;;4.45;;
25169;SDS011;13129;48.012;10.352;2023-04-07T13:28:01;5.60;;;4.70;;
25169;SDS011;13129;48.012;10.352;2023-04-07T13:30:27;5.97;;;4.45;;
25169;SDS011;13129;48.012;10.352;2023-04-07T13:32:53;4.78;;;4.32;;
25169;SDS011;13129;48.012;10.352;2023-04-07T13:35:18;4.95;;;4.18;;
25169;SDS011;13129;48.012;10.352;2023-04-07T13:37:44;6.13;;;4.60;;
25169;SDS011;13129;48.012;10.352;2023-04-07T13:40:10;6.25;;;4.65;;
25169;SDS011;13129;48.012;10.352;2023-04-07T13:42:39;5.40;;;4.93;;
25169;SDS011;13129;48.012;10.352;2023-04-07T13:45:05;6.35;;;5.07;;
25169;SDS011;13129;48.012;10.352;2023-04-07T13:47:31;4.88;;;4.38;;
25169;SDS011;13129;48.012;10.352;2023-04-07T13:49:58;5.50;;;5.00;;
25169;SDS011;13129;48.012;10.352;2023-04-07T13:52:25;5.65;;;5.07;;
25169;SDS011;13129;48.012;10.352;2023-04-07T13:54:51;5.28;;;4.57;;
25169;SDS011;13129;48.012;10.352;2023-04-07T13:57:18;5.93;;;5.00;;
25169;SDS011;13129;48.012;10.352;2023-04-07T13:59:44;4.65;;;4.18;;
25169;SDS011;13129;48.012;10.352;2023-04-07T14:02:12;5.20;;;4.70;;
25169;SDS011;13129;48.012;10.352;2023-04-07T14:04:38;6.30;;;5.70;;
25169;SDS011;13129;48.012;10.352;2023-04-07T14:07:03;5.63;;;5.13;;
25169;SDS011;13129;48.012;10.352;2023-04-07T14:09:29;6.88;;;6.15;;
25169;SDS011;13129;48.012;10.352;2023-04-07T14:11:55;6.00;;;4.70;;
25169;SDS011;13129;48.012;10.352;2023-04-07T14:14:21;5.78;;;5.13;;
25169;SDS011;13129;48.012;10.352;2023-04-07T14:16:47;7.57;;;5.68;;
25169;SDS011;13129;48.012;10.352;2023-04-07T14:19:17;6.25;;;4.75;;
25169;SDS011;13129;48.012;10.352;2023-04-07T14:21:47;6.57;;;4.55;;
25169;SDS011;13129;48.012;10.352;2023-04-07T14:24:14;5.38;;;4.85;;
25169;SDS011;13129;48.012;10.352;2023-04-07T14:26:41;6.10;;;5.55;;
25169;SDS011;13129;48.012;10.352;2023-04-07T14:29:08;4.47;;;4.07;;
25169;SDS011;13129;48.012;10.352;2023-04-07T14:31:34;5.45;;;4.00;;
25169;SDS011;13129;48.012;10.352;2023-04-07T14:33:59;4.82;;;4.43;;
25169;SDS011;13129;48.012;10.352;2023-04-07T14:36:25;5.45;;;4.70;;
25169;SDS011;13129;48.012;10.352;2023-04-07T14:38:51;4.97;;;3.50;;
25169;SDS011;13129;48.012;10.352;2023-04-07T14:41:18;5.90;;;5.50;;
25169;SDS011;13129;48.012;10.352;2023-04-07T14:43:44;4.85;;;3.92;;
25169;SDS011;13129;48.012;10.352;2023-04-07T14:46:11;4.82;;;4.43;;
25169;SDS011;13129;48.012;10.352;2023-04-07T14:48:38;5.22;;;4.53;;
25169;SDS011;13129;48.012;10.352;2023-04-07T14:51:09;4.55;;;4.07;;
25169;SDS011;13129;48.012;10.352;2023-04-07T14:53:36;5.72;;;3.90;;
25169;SDS011;13129;48.012;10.352;2023-04-07T14:56:05;4.40;;;3.95;;
25169;SDS011;13129;48.012;10.352;2023-04-07T14:58:31;4.00;;;3.70;;
25169;SDS011;13129;48.012;10.352;2023-04-07T15:00:57;4.32;;;3.92;;
25169;SDS011;13129;48.012;10.352;2023-04-07T15:03:22;4.63;;;4.20;;
25169;SDS011;13129;48.012;10.352;2023-04-07T15:05:48;4.22;;;3.83;;
25169;SDS011;13129;48.012;10.352;2023-04-07T15:08:14;4.05;;;3.65;;
25169;SDS011;13129;48.012;10.352;2023-04-07T15:10:40;5.55;;;4.15;;
25169;SDS011;13129;48.012;10.352;2023-04-07T15:13:05;5.63;;;4.30;;
25169;SDS011;13129;48.012;10.352;2023-04-07T15:15:31;5.85;;;5.35;;
25169;SDS011;13129;48.012;10.352;2023-04-07T15:17:56;4.95;;;4.45;;
25169;SDS011;13129;48.012;10.352;2023-04-07T15:20:22;5.88;;;4.47;;
25169;SDS011;13129;48.012;10.352;2023-04-07T15:22:58;4.53;;;4.13;;
25169;SDS011;13129;48.012;10.352;2023-04-07T15:25:25;4.75;;;4.32;;
25169;SDS011;13129;48.012;10.352;2023-04-07T15:27:51;6.18;;;5.57;;
25169;SDS011;13129;48.012;10.352;2023-04-07T15:30:16;4.80;;;4.40;;
25169;SDS011;13129;48.012;10.352;2023-04-07T15:32:55;5.15;;;4.57;;
25169;SDS011;13129;48.012;10.352;2023-04-07T15:35:30;4.22;;;3.78;;
25169;SDS011;13129;48.012;10.352;2023-04-07T15:37:55;3.90;;;3.50;;
25169;SDS011;13129;48.012;10.352;2023-04-07T15:40:21;4.70;;;3.85;;
25169;SDS011;13129;48.012;10.352;2023-04-07T15:42:47;5.32;;;3.90;;
25169;SDS011;13129;48.012;10.352;2023-04-07T15:45:12;6.30;;;4.10;;
25169;SDS011;13129;48.012;10.352;2023-04-07T15:47:38;5.03;;;4.28;;
25169;SDS011;13129;48.012;10.352;2023-04-07T15:50:04;5.32;;;4.70;;
25169;SDS011;13129;48.012;10.352;2023-04-07T15:52:30;5.32;;;4.82;;
25169;SDS011;13129;48.012;10.352;2023-04-07T15:54:56;6.30;;;4.88;;
25169;SDS011;13129;48.012;10.352;2023-04-07T15:57:22;6.82;;;4.85;;
25169;SDS011;13129;48.012;10.352;2023-04-07T15:59:47;6.10;;;5.50;;
25169;SDS011;13129;48.012;10.352;2023-04-07T16:02:13;6.63;;;5.15;;
25169;SDS011;13129;48.012;10.352;2023-04-07T16:04:39;4.32;;;3.20;;
25169;SDS011;13129;48.012;10.352;2023-04-07T16:07:05;3.17;;;2.75;;
25169;SDS011;13129;48.012;10.352;2023-04-07T16:09:31;2.20;;;2.00;;
25169;SDS011;13129;48.012;10.352;2023-04-07T16:11:57;2.30;;;2.10;;
25169;SDS011;13129;48.012;10.352;2023-04-07T16:14:24;5.15;;;4.30;;
25169;SDS011;13129;48.012;10.352;2023-04-07T16:16:52;4.63;;;3.20;;
25169;SDS011;13129;48.012;10.352;2023-04-07T16:19:22;3.28;;;2.30;;
25169;SDS011;13129;48.012;10.352;2023-04-07T16:21:49;2.28;;;2.08;;
25169;SDS011;13129;48.012;10.352;2023-04-07T16:24:14;1.85;;;1.75;;
25169;SDS011;13129;48.012;10.352;2023-04-07T16:26:40;1.85;;;1.73;;
25169;SDS011;13129;48.012;10.352;2023-04-07T16:29:05;3.17;;;2.22;;
25169;SDS011;13129;48.012;10.352;2023-04-07T16:31:31;2.53;;;2.33;;
25169;SDS011;13129;48.012;10.352;2023-04-07T16:33:57;3.38;;;3.08;;
25169;SDS011;13129;48.012;10.352;2023-04-07T16:36:22;5.32;;;3.25;;
25169;SDS011;13129;48.012;10.352;2023-04-07T16:38:48;4.85;;;4.00;;
25169;SDS011;13129;48.012;10.352;2023-04-07T16:41:15;4.45;;;4.05;;
25169;SDS011;13129;48.012;10.352;2023-04-07T16:43:40;4.03;;;3.70;;
25169;SDS011;13129;48.012;10.352;2023-04-07T16:46:06;4.15;;;3.70;;
25169;SDS011;13129;48.012;10.352;2023-04-07T16:48:32;4.57;;;4.18;;
25169;SDS011;13129;48.012;10.352;2023-04-07T16:50:57;4.10;;;3.72;;
25169;SDS011;13129;48.012;10.352;2023-04-07T16:53:23;4.88;;;3.78;;
25169;SDS011;13129;48.012;10.352;2023-04-07T16:55:48;5.00;;;4.00;;
25169;SDS011;13129;48.012;10.352;2023-04-07T16:58:14;5.18;;;4.68;;
25169;SDS011;13129;48.012;10.352;2023-04-07T17:00:43;4.32;;;3.90;;
25169;SDS011;13129;48.012;10.352;2023-04-07T17:03:09;4.53;;;3.83;;
25169;SDS011;13129;48.012;10.352;2023-04-07T17:05:37;4.50;;;4.10;;
25169;SDS011;13129;48.012;10.352;2023-04-07T17:08:02;5.40;;;4.90;;
25169;SDS011;13129;48.012;10.352;2023-04-07T17:10:28;5.57;;;5.00;;
25169;SDS011;13129;48.012;10.352;2023-04-07T17:12:54;6.95;;;5.55;;
25169;SDS011;13129;48.012;10.352;2023-04-07T17:15:20;6.07;;;5.32;;
25169;SDS011;13129;48.012;10.352;2023-04-07T17:17:47;5.53;;;4.47;;
25169;SDS011;13129;48.012;10.352;2023-04-07T17:20:14;5.25;;;4.40;;
25169;SDS011;13129;48.012;10.352;2023-04-07T17:22:42;5.95;;;4.00;;
25169;SDS011;13129;48.012;10.352;2023-04-07T17:25:08;5.07;;;4.00;;
25169;SDS011;13129;48.012;10.352;2023-04-07T17:27:34;4.00;;;3.70;;
25169;SDS011;13129;48.012;10.352;2023-04-07T17:30:00;4.28;;;3.88;;
25169;SDS011;13129;48.012;10.352;2023-04-07T17:32:26;4.75;;;4.20;;
25169;SDS011;13129;48.012;10.352;2023-04-07T17:34:52;5.78;;;4.50;;
25169;SDS011;13129;48.012;10.352;2023-04-07T17:37:17;4.65;;;4.13;;
25169;SDS011;13129;48.012;10.352;2023-04-07T17:39:43;4.47;;;4.07;;
25169;SDS011;13129;48.012;10.352;2023-04-07T17:42:09;4.85;;;4.43;;
25169;SDS011;13129;48.012;10.352;2023-04-07T17:44:35;7.57;;;6.65;;
25169;SDS011;13129;48.012;10.352;2023-04-07T17:47:01;7.32;;;6.57;;
25169;SDS011;13129;48.012;10.352;2023-04-07T17:49:27;9.00;;;7.95;;
25169;SDS011;13129;48.012;10.352;2023-04-07T17:51:52;17.90;;;13.88;;
25169;SDS011;13129;48.012;10.352;2023-04-07T17:54:18;22.98;;;17.42;;
25169;SDS011;13129;48.012;10.352;2023-04-07T17:56:44;14.23;;;10.75;;
25169;SDS011;13129;48.012;10.352;2023-04-07T17:59:10;6.78;;;6.07;;
25169;SDS011;13129;48.012;10.352;2023-04-07T18:01:35;6.47;;;5.00;;
25169;SDS011;13129;48.012;10.352;2023-04-07T18:04:01;4.80;;;4.40;;
25169;SDS011;13129;48.012;10.352;2023-04-07T18:06:27;6.38;;;5.10;;
25169;SDS011;13129;48.012;10.352;2023-04-07T18:08:52;6.30;;;5.72;;
25169;SDS011;13129;48.012;10.352;2023-04-07T18:11:19;5.57;;;5.07;;
25169;SDS011;13129;48.012;10.352;2023-04-07T18:13:45;9.20;;;6.85;;
25169;SDS011;13129;48.012;10.352;2023-04-07T18:16:11;8.38;;;7.30;;